createdAt,value
2018-04-27T00:02:14.049Z,7.30
2018-04-27T00:04:42.567Z,13.27
2018-04-27T00:07:11.072Z,11.40
2018-04-27T00:09:39.521Z,11.00
2018-04-27T00:12:08.657Z,10.83
2018-04-27T00:14:37.788Z,10.90
2018-04-27T00:17:06.329Z,7.30
2018-04-27T00:19:34.713Z,8.55
2018-04-27T00:22:03.597Z,6.27
2018-04-27T00:24:32.906Z,19.02
2018-04-27T00:27:02.000Z,8.20
2018-04-27T00:29:31.278Z,8.10
2018-04-27T00:31:59.581Z,9.98
2018-04-27T00:34:28.794Z,8.30
2018-04-27T00:36:57.251Z,7.40
2018-04-27T00:39:25.793Z,7.10
2018-04-27T00:41:54.147Z,11.68
2018-04-27T00:44:22.808Z,11.07
2018-04-27T00:46:51.947Z,9.57
2018-04-27T00:49:20.276Z,14.50
2018-04-27T00:51:48.675Z,6.53
2018-04-27T00:54:17.794Z,9.30
2018-04-27T00:56:46.112Z,7.00
2018-04-27T00:59:14.471Z,16.70
2018-04-27T01:01:42.844Z,8.77
2018-04-27T01:04:11.171Z,7.07
2018-04-27T01:06:39.755Z,10.10
2018-04-27T01:09:08.906Z,8.10
2018-04-27T01:11:37.240Z,8.40
2018-04-27T01:14:05.596Z,14.20
2018-04-27T01:16:33.943Z,12.70
2018-04-27T01:19:02.390Z,9.80
2018-04-27T01:21:30.807Z,7.77
2018-04-27T01:23:59.187Z,8.82
2018-04-27T01:26:27.528Z,8.47
2018-04-27T01:28:56.097Z,9.43
2018-04-27T01:31:25.246Z,8.70
2018-04-27T01:33:53.617Z,8.18
2018-04-27T01:36:21.977Z,20.55
2018-04-27T01:38:50.336Z,14.82
2018-04-27T01:41:19.765Z,13.95
2018-04-27T01:43:48.153Z,9.95
2018-04-27T01:46:16.533Z,19.20
2018-04-27T01:48:44.876Z,10.82
2018-04-27T01:51:13.599Z,19.40
2018-04-27T01:53:41.944Z,12.30
2018-04-27T01:56:11.038Z,13.62
2018-04-27T01:58:40.184Z,16.00
2018-04-27T02:01:08.522Z,10.05
2018-04-27T02:03:37.658Z,13.00
2018-04-27T02:06:06.013Z,14.30
2018-04-27T02:08:34.404Z,9.85
2018-04-27T02:11:02.761Z,14.30
2018-04-27T02:13:31.682Z,13.75
2018-04-27T02:16:00.051Z,15.75
2018-04-27T02:18:28.403Z,29.55
2018-04-27T02:20:57.616Z,14.90
2018-04-27T02:23:26.070Z,13.50
2018-04-27T02:25:54.548Z,17.12
2018-04-27T02:28:23.022Z,16.20
2018-04-27T02:30:51.421Z,12.50
2018-04-27T02:33:20.616Z,16.30
2018-04-27T02:35:49.187Z,22.25
2018-04-27T02:38:17.564Z,9.05
2018-04-27T02:40:45.957Z,8.55
2018-04-27T02:43:15.228Z,18.70
2018-04-27T02:45:43.620Z,17.55
2018-04-27T02:48:12.100Z,28.17
2018-04-27T02:50:40.523Z,10.88
2018-04-27T02:53:08.881Z,23.35
2018-04-27T02:55:38.055Z,16.95
2018-04-27T02:58:06.752Z,13.05
2018-04-27T03:00:35.165Z,23.30
2018-04-27T03:03:03.618Z,16.05
2018-04-27T03:05:32.012Z,16.30
2018-04-27T03:08:01.197Z,17.90
2018-04-27T03:10:30.291Z,28.00
2018-04-27T03:12:58.767Z,13.88
2018-04-27T03:15:27.195Z,23.62
2018-04-27T03:17:55.602Z,18.42
2018-04-27T03:20:24.435Z,20.75
2018-04-27T03:22:52.913Z,19.52
2018-04-27T03:25:22.205Z,30.08
2018-04-27T03:27:50.624Z,19.60
2018-04-27T03:30:19.073Z,21.95
2018-04-27T03:32:47.645Z,20.50
2018-04-27T03:35:16.061Z,22.27
2018-04-27T03:37:44.401Z,29.02
2018-04-27T03:40:12.809Z,30.60
2018-04-27T03:42:42.773Z,29.90
2018-04-27T03:45:11.158Z,27.65
2018-04-27T03:47:39.518Z,29.85
2018-04-27T03:50:07.903Z,28.38
2018-04-27T03:52:46.922Z,23.10
2018-04-27T03:55:15.410Z,32.13
2018-04-27T03:57:43.815Z,31.83
2018-04-27T04:00:29.988Z,32.10
2018-04-27T04:03:15.811Z,29.30
2018-04-27T04:05:44.189Z,32.70
2018-04-27T04:08:12.634Z,39.28
2018-04-27T04:10:40.949Z,28.52
2018-04-27T04:13:09.341Z,30.02
2018-04-27T04:15:38.479Z,28.40
2018-04-27T04:18:06.831Z,30.92
2018-04-27T04:20:36.068Z,32.30
2018-04-27T04:23:04.431Z,29.42
2018-04-27T04:25:32.809Z,35.85
2018-04-27T04:28:01.202Z,27.73
2018-04-27T04:30:29.534Z,26.90
2018-04-27T04:32:58.684Z,25.10
2018-04-27T04:35:27.147Z,30.17
2018-04-27T04:37:55.490Z,38.90
2018-04-27T04:40:24.667Z,34.42
2018-04-27T04:42:53.510Z,32.83
2018-04-27T04:45:21.865Z,33.05
2018-04-27T04:47:50.935Z,40.17
2018-04-27T04:50:19.321Z,39.05
2018-04-27T04:52:47.683Z,36.60
2018-04-27T04:55:16.080Z,30.37
2018-04-27T04:57:44.456Z,35.58
2018-04-27T05:00:12.820Z,34.78
2018-04-27T05:02:41.235Z,32.67
2018-04-27T05:05:10.050Z,39.22
2018-04-27T05:07:38.432Z,43.87
2018-04-27T05:10:06.802Z,38.07
2018-04-27T05:12:35.948Z,37.00
2018-04-27T05:15:04.343Z,33.78
2018-04-27T05:17:32.726Z,40.07
2018-04-27T05:20:00.314Z,42.70
2018-04-27T05:22:33.408Z,36.80
2018-04-27T05:25:02.135Z,34.70
2018-04-27T05:27:30.506Z,35.00
2018-04-27T05:29:58.812Z,44.03
2018-04-27T05:32:27.172Z,43.60
2018-04-27T05:34:55.577Z,41.00
2018-04-27T05:37:23.917Z,36.80
2018-04-27T05:39:52.267Z,31.90
2018-04-27T05:42:21.363Z,39.07
2018-04-27T05:44:49.932Z,38.10
2018-04-27T05:47:19.580Z,38.33
2018-04-27T05:49:47.895Z,50.80
2018-04-27T05:52:16.256Z,41.03
2018-04-27T05:54:44.645Z,35.07
2018-04-27T05:57:12.988Z,38.70
2018-04-27T05:59:41.338Z,39.87
2018-04-27T06:02:09.710Z,43.10
2018-04-27T06:04:38.140Z,41.80
2018-04-27T06:07:06.413Z,32.50
2018-04-27T06:09:35.761Z,33.60
2018-04-27T06:12:04.109Z,31.57
2018-04-27T06:14:32.444Z,32.23
2018-04-27T06:17:00.826Z,36.77
2018-04-27T06:19:29.150Z,40.90
2018-04-27T06:21:57.525Z,38.37
2018-04-27T06:24:25.902Z,39.70
2018-04-27T06:26:54.256Z,31.47
2018-04-27T06:29:22.600Z,34.90
2018-04-27T06:31:51.921Z,35.40
2018-04-27T06:34:21.033Z,32.80
2018-04-27T06:36:49.393Z,33.33
2018-04-27T06:39:17.746Z,37.70
2018-04-27T06:41:46.089Z,28.30
2018-04-27T06:44:14.423Z,38.90
2018-04-27T06:46:43.794Z,25.53
2018-04-27T06:49:12.281Z,33.53
2018-04-27T06:51:40.625Z,40.03
2018-04-27T06:54:09.229Z,29.20
2018-04-27T06:56:37.592Z,34.97
2018-04-27T06:59:05.922Z,31.87
2018-04-27T07:01:35.121Z,25.73
2018-04-27T07:04:04.279Z,28.93
2018-04-27T07:06:32.724Z,28.20
2018-04-27T07:09:01.100Z,22.80
2018-04-27T07:11:29.457Z,23.53
2018-04-27T07:13:57.844Z,26.70
2018-04-27T07:16:27.220Z,37.33
2018-04-27T07:18:55.576Z,22.43
2018-04-27T07:21:23.920Z,21.10
2018-04-27T07:23:52.377Z,25.57
2018-04-27T07:26:20.752Z,27.87
2018-04-27T07:28:49.270Z,40.83
2018-04-27T07:31:17.700Z,35.03
2018-04-27T07:33:46.060Z,28.23
2018-04-27T07:36:14.462Z,31.13
2018-04-27T07:38:43.287Z,29.80
2018-04-27T07:41:11.773Z,22.20
2018-04-27T07:43:40.115Z,35.13
2018-04-27T07:46:08.498Z,23.70
2018-04-27T07:48:37.650Z,20.53
2018-04-27T07:51:05.999Z,21.27
2018-04-27T07:53:35.139Z,24.43
2018-04-27T07:56:03.507Z,19.53
2018-04-27T07:58:31.854Z,21.20
2018-04-27T08:01:01.258Z,23.07
2018-04-27T08:03:30.375Z,18.57
2018-04-27T08:05:58.756Z,23.00
2018-04-27T08:08:27.126Z,20.83
2018-04-27T08:10:55.475Z,21.60
2018-04-27T08:13:23.799Z,24.80
2018-04-27T08:15:52.183Z,22.63
2018-04-27T08:18:22.212Z,28.83
2018-04-27T08:20:50.554Z,18.30
2018-04-27T08:23:19.926Z,27.57
2018-04-27T08:25:48.263Z,21.13
2018-04-27T08:28:16.698Z,16.47
2018-04-27T08:30:45.915Z,25.77
2018-04-27T08:33:14.233Z,27.20
2018-04-27T08:35:42.649Z,22.50
2018-04-27T08:38:11.027Z,22.00
2018-04-27T08:40:39.375Z,21.73
2018-04-27T08:43:07.730Z,22.10
2018-04-27T08:45:36.156Z,21.33
2018-04-27T08:48:04.464Z,18.43
2018-04-27T08:50:32.846Z,24.90
2018-04-27T08:53:02.001Z,22.63
2018-04-27T08:55:30.359Z,25.13
2018-04-27T08:57:58.742Z,25.17
2018-04-27T09:00:27.144Z,21.90
2018-04-27T09:02:55.451Z,21.67
2018-04-27T09:05:24.580Z,24.20
2018-04-27T09:07:53.153Z,20.67
2018-04-27T09:10:21.608Z,17.93
2018-04-27T09:12:50.728Z,15.70
2018-04-27T09:15:19.123Z,18.67
2018-04-27T09:17:47.466Z,21.87
2018-04-27T09:20:15.825Z,19.33
2018-04-27T09:22:44.194Z,28.97
2018-04-27T09:25:12.498Z,23.63
2018-04-27T09:27:40.923Z,16.77
2018-04-27T09:30:09.638Z,26.60
2018-04-27T09:32:38.757Z,17.80
2018-04-27T09:35:07.096Z,17.57
2018-04-27T09:37:35.471Z,23.67
2018-04-27T09:40:03.927Z,18.67
2018-04-27T09:42:32.280Z,14.20
2018-04-27T09:45:01.437Z,25.77
2018-04-27T09:47:30.904Z,22.73
2018-04-27T09:49:59.253Z,22.07
2018-04-27T09:52:28.261Z,16.87
2018-04-27T09:54:56.660Z,18.60
2018-04-27T09:57:25.069Z,17.17
2018-04-27T09:59:53.432Z,14.60
2018-04-27T10:02:21.778Z,12.00
2018-04-27T10:04:50.307Z,13.63
2018-04-27T10:07:18.682Z,14.37
2018-04-27T10:09:46.999Z,11.37
2018-04-27T10:12:15.445Z,18.53
2018-04-27T10:14:43.898Z,24.47
2018-04-27T10:17:12.269Z,18.63
2018-04-27T10:19:41.461Z,7.07
2018-04-27T10:22:09.832Z,15.40
2018-04-27T10:24:38.186Z,13.10
2018-04-27T10:27:06.530Z,13.20
2018-04-27T10:29:34.911Z,20.93
2018-04-27T10:32:03.245Z,10.70
2018-04-27T10:34:32.405Z,14.87
2018-04-27T10:37:00.947Z,13.77
2018-04-27T10:39:29.289Z,14.93
2018-04-27T10:41:57.652Z,10.37
2018-04-27T10:44:26.029Z,12.77
2018-04-27T10:46:54.396Z,11.43
2018-04-27T10:49:22.752Z,10.13
2018-04-27T10:51:51.106Z,14.90
2018-04-27T10:54:20.208Z,16.63
2018-04-27T10:56:49.307Z,10.10
2018-04-27T10:59:18.101Z,15.67
2018-04-27T11:01:46.455Z,13.13
2018-04-27T11:04:15.622Z,9.03
2018-04-27T11:06:44.040Z,10.70
2018-04-27T11:09:13.151Z,7.70
2018-04-27T11:11:42.246Z,8.50
2018-04-27T11:14:11.405Z,12.20
2018-04-27T11:16:40.105Z,9.73
2018-04-27T11:19:08.457Z,19.70
2018-04-27T11:21:37.075Z,9.00
2018-04-27T11:24:05.478Z,7.40
2018-04-27T11:26:33.851Z,7.73
2018-04-27T11:29:02.207Z,9.30
2018-04-27T11:31:30.551Z,16.47
2018-04-27T11:33:58.936Z,19.53
2018-04-27T11:36:27.320Z,10.60
2018-04-27T11:38:55.644Z,9.53
2018-04-27T11:41:24.006Z,11.50
2018-04-27T11:43:53.364Z,8.97
2018-04-27T11:46:21.732Z,15.67
2018-04-27T11:48:50.297Z,9.23
2018-04-27T11:51:18.714Z,11.90
2018-04-27T11:53:47.105Z,7.50
2018-04-27T11:56:15.464Z,11.30
2018-04-27T11:58:43.837Z,10.90
2018-04-27T12:01:12.192Z,12.67
2018-04-27T12:03:40.652Z,13.90
2018-04-27T12:06:09.115Z,8.50
2018-04-27T12:08:38.248Z,7.90
2018-04-27T12:11:06.581Z,15.10
2018-04-27T12:13:34.953Z,12.00
2018-04-27T12:16:03.380Z,8.23
2018-04-27T12:18:32.510Z,7.47
2018-04-27T12:21:00.935Z,16.33
2018-04-27T12:23:29.291Z,11.03
2018-04-27T12:25:57.647Z,34.10
2018-04-27T12:28:26.496Z,8.97
2018-04-27T12:30:55.684Z,10.73
2018-04-27T12:33:23.967Z,13.43
2018-04-27T12:35:52.311Z,13.50
2018-04-27T12:38:20.653Z,12.37
2018-04-27T12:40:49.009Z,13.70
2018-04-27T12:43:18.132Z,11.30
2018-04-27T12:45:46.493Z,10.27
2018-04-27T12:48:14.874Z,11.30
2018-04-27T12:50:44.893Z,13.77
2018-04-27T12:53:14.077Z,7.40
2018-04-27T12:55:43.214Z,12.17
2018-04-27T12:58:11.592Z,7.30
2018-04-27T13:00:39.946Z,9.30
2018-04-27T13:03:09.047Z,19.47
2018-04-27T13:05:38.197Z,5.90
2018-04-27T13:08:06.514Z,8.33
2018-04-27T13:10:35.616Z,8.97
2018-04-27T13:13:04.217Z,12.77
2018-04-27T13:15:33.312Z,10.63
2018-04-27T13:18:01.702Z,11.70
2018-04-27T13:20:30.083Z,10.37
2018-04-27T13:22:58.434Z,17.13
2018-04-27T13:25:26.834Z,9.77
2018-04-27T13:27:55.264Z,6.67
2018-04-27T13:30:23.618Z,6.17
2018-04-27T13:32:51.933Z,11.90
2018-04-27T13:35:21.551Z,16.50
2018-04-27T13:37:49.915Z,4.67
2018-04-27T13:40:18.242Z,11.73
2018-04-27T13:42:46.677Z,6.07
2018-04-27T13:45:15.076Z,27.40
2018-04-27T13:47:43.370Z,11.10
2018-04-27T13:50:11.791Z,10.23
2018-04-27T13:52:40.570Z,9.77
2018-04-27T13:55:08.904Z,7.90
2018-04-27T13:57:37.503Z,12.87
2018-04-27T14:00:05.825Z,17.93
2018-04-27T14:02:34.196Z,4.93
2018-04-27T14:05:02.540Z,7.87
2018-04-27T14:07:30.915Z,6.10
2018-04-27T14:09:59.252Z,9.50
2018-04-27T14:12:27.599Z,7.13
2018-04-27T14:14:55.905Z,7.00
2018-04-27T14:17:24.216Z,15.67
2018-04-27T14:19:52.908Z,5.40
2018-04-27T14:22:21.291Z,8.77
2018-04-27T14:24:49.695Z,7.60
2018-04-27T14:27:18.068Z,8.40
2018-04-27T14:29:46.478Z,7.90
2018-04-27T14:32:14.824Z,7.47
2018-04-27T14:34:43.219Z,5.60
2018-04-27T14:37:11.558Z,3.93
2018-04-27T14:39:40.680Z,5.07
2018-04-27T14:42:09.420Z,11.53
2018-04-27T14:44:38.539Z,3.53
2018-04-27T14:47:06.883Z,2.33
2018-04-27T14:49:35.244Z,8.77
2018-04-27T14:52:03.652Z,8.63
2018-04-27T14:54:31.959Z,7.87
2018-04-27T14:57:00.359Z,2.83
2018-04-27T14:59:28.727Z,6.27
2018-04-27T15:01:57.068Z,12.30
2018-04-27T15:04:25.739Z,2.83
2018-04-27T15:06:54.793Z,5.03
2018-04-27T15:09:23.133Z,2.70
2018-04-27T15:11:51.502Z,4.10
2018-04-27T15:14:19.824Z,3.03
2018-04-27T15:16:48.124Z,6.60
2018-04-27T15:19:16.517Z,6.60
2018-04-27T15:21:44.885Z,9.23
2018-04-27T15:24:13.354Z,2.60
2018-04-27T15:26:41.985Z,3.37
2018-04-27T15:29:10.300Z,20.40
2018-04-27T15:31:38.623Z,6.80
2018-04-27T15:34:06.960Z,6.57
2018-04-27T15:36:35.303Z,3.03
2018-04-27T15:39:04.425Z,5.10
2018-04-27T15:41:32.796Z,3.70
2018-04-27T15:44:01.158Z,3.50
2018-04-27T15:46:30.253Z,5.33
2018-04-27T15:48:59.515Z,6.03
2018-04-27T15:51:27.874Z,4.50
2018-04-27T15:53:56.325Z,13.93
2018-04-27T15:56:25.558Z,10.73
2018-04-27T15:58:54.628Z,13.20
2018-04-27T16:01:22.999Z,4.23
2018-04-27T16:03:52.099Z,5.00
2018-04-27T16:06:21.198Z,8.77
2018-04-27T16:08:50.426Z,8.93
2018-04-27T16:11:19.275Z,3.30
2018-04-27T16:13:53.075Z,13.13
2018-04-27T16:16:23.275Z,2.77
2018-04-27T16:18:53.012Z,6.43
2018-04-27T16:21:22.311Z,7.20
2018-04-27T16:23:50.660Z,10.63
2018-04-27T16:26:22.464Z,3.10
2018-04-27T16:28:51.647Z,4.00
2018-04-27T16:31:20.776Z,6.90
2018-04-27T16:33:49.083Z,4.30
2018-04-27T16:36:17.527Z,6.50
2018-04-27T16:38:45.882Z,12.33
2018-04-27T16:41:14.230Z,9.40
2018-04-27T16:43:42.708Z,6.33
2018-04-27T16:46:11.125Z,3.70
2018-04-27T16:48:39.475Z,11.83
2018-04-27T16:51:08.136Z,8.47
2018-04-27T16:53:37.254Z,7.13
2018-04-27T16:56:05.580Z,11.53
2018-04-27T16:58:34.673Z,8.80
2018-04-27T17:01:03.778Z,7.93
2018-04-27T17:03:32.117Z,10.67
2018-04-27T17:06:00.455Z,17.27
2018-04-27T17:08:28.768Z,10.97
2018-04-27T17:10:57.096Z,5.67
2018-04-27T17:13:25.930Z,11.70
2018-04-27T17:15:54.189Z,11.90
2018-04-27T17:18:22.537Z,9.77
2018-04-27T17:20:50.883Z,9.20
2018-04-27T17:23:19.284Z,8.73
2018-04-27T17:25:48.374Z,11.33
2018-04-27T17:28:17.506Z,6.13
2018-04-27T17:30:45.850Z,8.67
2018-04-27T17:33:14.961Z,5.77
2018-04-27T17:35:43.472Z,7.77
2018-04-27T17:38:11.800Z,9.07
2018-04-27T17:40:40.944Z,6.63
2018-04-27T17:43:09.352Z,10.10
2018-04-27T17:45:37.780Z,7.50
2018-04-27T17:48:06.041Z,7.93
2018-04-27T17:50:34.435Z,5.23
2018-04-27T17:53:03.553Z,11.00
2018-04-27T17:55:31.897Z,4.97
2018-04-27T17:58:00.371Z,9.43
2018-04-27T18:00:29.504Z,13.43
2018-04-27T18:02:57.840Z,11.97
2018-04-27T18:05:26.223Z,13.33
2018-04-27T18:07:55.367Z,8.87
2018-04-27T18:10:23.728Z,7.60
2018-04-27T18:12:52.869Z,7.03
2018-04-27T18:15:21.207Z,4.50
2018-04-27T18:17:49.644Z,10.33
2018-04-27T18:20:18.408Z,15.77
2018-04-27T18:22:46.739Z,17.03
2018-04-27T18:25:15.127Z,15.83
2018-04-27T18:27:43.595Z,9.33
2018-04-27T18:30:11.911Z,9.80
2018-04-27T18:32:40.295Z,19.10
2018-04-27T18:35:08.726Z,17.80
2018-04-27T18:37:37.856Z,25.23
2018-04-27T18:40:06.239Z,8.93
2018-04-27T18:42:35.119Z,14.43
2018-04-27T18:45:03.471Z,14.27
2018-04-27T18:47:32.579Z,9.53
2018-04-27T18:50:01.699Z,14.90
2018-04-27T18:52:30.348Z,15.67
2018-04-27T18:54:58.774Z,19.33
2018-04-27T18:57:27.155Z,10.03
2018-04-27T18:59:55.507Z,14.13
2018-04-27T19:02:23.860Z,13.33
2018-04-27T19:04:52.310Z,13.37
2018-04-27T19:07:21.382Z,11.87
2018-04-27T19:09:49.715Z,12.90
2018-04-27T19:12:18.132Z,13.73
2018-04-27T19:14:48.044Z,26.33
2018-04-27T19:17:16.423Z,29.97
2018-04-27T19:19:44.853Z,18.70
2018-04-27T19:22:31.750Z,14.47
2018-04-27T19:25:00.281Z,15.03
2018-04-27T19:27:29.545Z,14.67
2018-04-27T19:29:57.928Z,7.87
2018-04-27T19:32:26.336Z,16.47
2018-04-27T19:34:54.824Z,13.03
2018-04-27T19:37:23.942Z,12.93
2018-04-27T19:39:52.411Z,13.50
2018-04-27T19:42:21.504Z,14.13
2018-04-27T19:44:50.619Z,6.63
2018-04-27T19:47:19.085Z,11.90
2018-04-27T19:49:48.316Z,14.87
2018-04-27T19:52:16.668Z,14.33
2018-04-27T19:54:45.031Z,16.37
2018-04-27T19:57:13.416Z,12.53
2018-04-27T19:59:41.803Z,7.40
2018-04-27T20:02:10.184Z,7.70
2018-04-27T20:04:39.311Z,17.17
2018-04-27T20:07:07.643Z,12.33
2018-04-27T20:09:37.061Z,7.10
2018-04-27T20:12:06.335Z,6.97
2018-04-27T20:14:38.372Z,16.20
2018-04-27T20:17:06.736Z,9.40
2018-04-27T20:19:38.379Z,13.00
2018-04-27T20:22:11.954Z,10.73
2018-04-27T20:24:40.396Z,22.80
2018-04-27T20:27:08.732Z,13.40
2018-04-27T20:29:37.236Z,19.20
2018-04-27T20:32:05.604Z,14.40
2018-04-27T20:34:34.015Z,18.03
2018-04-27T20:37:02.470Z,13.73
2018-04-27T20:39:31.659Z,13.53
2018-04-27T20:42:00.186Z,11.23
2018-04-27T20:44:28.658Z,11.63
2018-04-27T20:46:57.028Z,23.83
2018-04-27T20:49:25.385Z,10.20
2018-04-27T20:51:53.824Z,11.63
2018-04-27T20:54:22.151Z,6.57
2018-04-27T20:56:50.542Z,16.23
2018-04-27T20:59:19.684Z,11.40
2018-04-27T21:01:48.084Z,23.27
2018-04-27T21:04:16.489Z,12.90
2018-04-27T21:06:45.715Z,20.50
2018-04-27T21:09:14.067Z,14.10
2018-04-27T21:11:43.262Z,27.23
2018-04-27T21:14:12.031Z,13.60
2018-04-27T21:16:41.326Z,17.43
2018-04-27T21:19:09.732Z,14.20
2018-04-27T21:21:38.096Z,18.50
2018-04-27T21:24:06.451Z,27.13
2018-04-27T21:26:43.919Z,31.83
2018-04-27T21:29:21.459Z,16.93
2018-04-27T21:31:50.261Z,11.60
2018-04-27T21:34:18.705Z,28.03
2018-04-27T21:36:50.716Z,25.27
2018-04-27T21:39:28.185Z,15.73
2018-04-27T21:42:13.867Z,14.50
2018-04-27T21:44:44.186Z,36.70
2018-04-27T21:47:26.386Z,10.80
2018-04-27T21:49:55.551Z,23.03
2018-04-27T21:52:31.214Z,25.43
2018-04-27T21:54:59.563Z,11.03
2018-04-27T21:57:50.267Z,11.50
2018-04-27T22:00:22.940Z,16.20
2018-04-27T22:03:26.281Z,15.67
2018-04-27T22:06:25.079Z,9.60
2018-04-27T22:09:09.158Z,13.90
2018-04-27T22:11:50.923Z,20.57
2018-04-27T22:14:34.180Z,14.33
2018-04-27T22:17:19.027Z,11.50
2018-04-27T22:19:48.475Z,14.77
2018-04-27T22:22:16.993Z,13.90
2018-04-27T22:24:59.536Z,13.77
2018-04-27T22:27:29.672Z,17.30
2018-04-27T22:30:02.758Z,10.40
2018-04-27T22:32:40.342Z,9.93
2018-04-27T22:35:20.506Z,14.20
2018-04-27T22:37:53.396Z,7.97
2018-04-27T22:40:35.680Z,20.47
2018-04-27T22:43:14.254Z,8.40
2018-04-27T22:45:46.363Z,18.47
2018-04-27T22:48:40.392Z,12.77
2018-04-27T22:51:10.147Z,12.93
2018-04-27T22:53:42.007Z,17.40
2018-04-27T22:56:19.779Z,7.47
2018-04-27T22:58:48.871Z,30.57
2018-04-27T23:01:17.277Z,14.63
2018-04-27T23:03:45.686Z,14.20
2018-04-27T23:06:14.008Z,13.23
2018-04-27T23:08:53.343Z,10.90
2018-04-27T23:11:33.114Z,21.80
2018-04-27T23:14:08.359Z,18.23
2018-04-27T23:16:37.496Z,12.10
2018-04-27T23:19:08.162Z,9.80
2018-04-27T23:25:13.042Z,22.97
2018-04-27T23:27:42.475Z,13.47
2018-04-27T23:30:10.824Z,17.57
2018-04-27T23:32:41.176Z,15.53
2018-04-27T23:35:09.546Z,16.10
2018-04-27T23:37:38.669Z,20.33
2018-04-27T23:40:07.015Z,19.30
2018-04-27T23:42:36.163Z,14.53
2018-04-27T23:45:05.219Z,21.63
2018-04-27T23:47:34.314Z,16.37
2018-04-27T23:50:03.569Z,19.67
2018-04-27T23:52:31.895Z,14.57
2018-04-27T23:55:00.575Z,14.83
2018-04-27T23:57:32.432Z,21.30
